sensor_id;sensor_type;location;lat;lon;timestamp;P1;durP1;ratioP1;P2;durP2;ratioP2
58669;SDS011;44439;47.924;10.198;2022-09-21T00:00:10;4.35;;;2.63;;
58669;SDS011;44439;47.924;10.198;2022-09-21T00:02:56;4.82;;;2.47;;
58669;SDS011;44439;47.924;10.198;2022-09-21T00:05:42;4.18;;;2.78;;
58669;SDS011;44439;47.924;10.198;2022-09-21T00:08:28;4.15;;;3.25;;
58669;SDS011;44439;47.924;10.198;2022-09-21T00:11:18;5.32;;;2.85;;
58669;SDS011;44439;47.924;10.198;2022-09-21T00:14:07;4.00;;;2.65;;
58669;SDS011;44439;47.924;10.198;2022-09-21T00:16:54;4.97;;;2.70;;
58669;SDS011;44439;47.924;10.198;2022-09-21T00:19:40;5.18;;;2.60;;
58669;SDS011;44439;47.924;10.198;2022-09-21T00:22:26;5.65;;;2.53;;
58669;SDS011;44439;47.924;10.198;2022-09-21T00:25:12;4.20;;;2.50;;
58669;SDS011;44439;47.924;10.198;2022-09-21T00:27:58;4.05;;;2.67;;
58669;SDS011;44439;47.924;10.198;2022-09-21T00:30:43;8.75;;;2.83;;
58669;SDS011;44439;47.924;10.198;2022-09-21T00:33:30;3.90;;;2.90;;
58669;SDS011;44439;47.924;10.198;2022-09-21T00:36:17;6.28;;;2.72;;
58669;SDS011;44439;47.924;10.198;2022-09-21T00:39:04;5.80;;;2.63;;
58669;SDS011;44439;47.924;10.198;2022-09-21T00:41:50;4.78;;;2.97;;
58669;SDS011;44439;47.924;10.198;2022-09-21T00:44:37;4.47;;;2.80;;
58669;SDS011;44439;47.924;10.198;2022-09-21T00:47:33;5.18;;;3.03;;
58669;SDS011;44439;47.924;10.198;2022-09-21T00:50:21;4.85;;;2.40;;
58669;SDS011;44439;47.924;10.198;2022-09-21T00:53:08;6.63;;;2.60;;
58669;SDS011;44439;47.924;10.198;2022-09-21T00:55:54;2.92;;;2.47;;
58669;SDS011;44439;47.924;10.198;2022-09-21T00:58:50;5.50;;;2.50;;
58669;SDS011;44439;47.924;10.198;2022-09-21T01:01:36;4.82;;;2.65;;
58669;SDS011;44439;47.924;10.198;2022-09-21T01:04:22;3.33;;;2.60;;
58669;SDS011;44439;47.924;10.198;2022-09-21T01:07:10;5.82;;;2.70;;
58669;SDS011;44439;47.924;10.198;2022-09-21T01:09:59;7.30;;;2.77;;
58669;SDS011;44439;47.924;10.198;2022-09-21T01:16:02;3.40;;;2.65;;
58669;SDS011;44439;47.924;10.198;2022-09-21T01:25:23;4.22;;;2.55;;
58669;SDS011;44439;47.924;10.198;2022-09-21T01:31:25;3.40;;;2.50;;
58669;SDS011;44439;47.924;10.198;2022-09-21T01:34:37;3.58;;;2.55;;
58669;SDS011;44439;47.924;10.198;2022-09-21T01:37:24;2.92;;;2.53;;
58669;SDS011;44439;47.924;10.198;2022-09-21T01:40:16;6.43;;;2.90;;
58669;SDS011;44439;47.924;10.198;2022-09-21T01:43:04;5.35;;;2.60;;
58669;SDS011;44439;47.924;10.198;2022-09-21T01:45:52;5.68;;;2.80;;
58669;SDS011;44439;47.924;10.198;2022-09-21T01:48:40;3.47;;;2.28;;
58669;SDS011;44439;47.924;10.198;2022-09-21T01:51:26;3.97;;;2.70;;
58669;SDS011;44439;47.924;10.198;2022-09-21T01:54:20;4.40;;;2.28;;
58669;SDS011;44439;47.924;10.198;2022-09-21T01:57:43;5.05;;;2.60;;
58669;SDS011;44439;47.924;10.198;2022-09-21T02:00:23;5.55;;;3.20;;
58669;SDS011;44439;47.924;10.198;2022-09-21T02:03:11;9.48;;;2.70;;
58669;SDS011;44439;47.924;10.198;2022-09-21T02:06:00;4.97;;;3.00;;
58669;SDS011;44439;47.924;10.198;2022-09-21T02:08:46;4.82;;;2.83;;
58669;SDS011;44439;47.924;10.198;2022-09-21T02:11:32;4.50;;;2.40;;
58669;SDS011;44439;47.924;10.198;2022-09-21T02:14:19;4.43;;;2.65;;
58669;SDS011;44439;47.924;10.198;2022-09-21T02:20:31;4.70;;;3.10;;
58669;SDS011;44439;47.924;10.198;2022-09-21T02:26:31;8.45;;;4.35;;
58669;SDS011;44439;47.924;10.198;2022-09-21T02:29:28;7.25;;;3.72;;
58669;SDS011;44439;47.924;10.198;2022-09-21T02:32:29;7.65;;;4.20;;
58669;SDS011;44439;47.924;10.198;2022-09-21T02:38:21;3.38;;;2.45;;
58669;SDS011;44439;47.924;10.198;2022-09-21T02:41:15;4.03;;;2.60;;
58669;SDS011;44439;47.924;10.198;2022-09-21T02:53:25;8.68;;;5.10;;
58669;SDS011;44439;47.924;10.198;2022-09-21T02:56:13;4.00;;;3.42;;
58669;SDS011;44439;47.924;10.198;2022-09-21T02:59:01;8.68;;;4.22;;
58669;SDS011;44439;47.924;10.198;2022-09-21T03:01:49;4.75;;;4.20;;
58669;SDS011;44439;47.924;10.198;2022-09-21T03:04:34;4.72;;;3.85;;
58669;SDS011;44439;47.924;10.198;2022-09-21T03:07:21;6.65;;;4.38;;
58669;SDS011;44439;47.924;10.198;2022-09-21T03:10:06;6.07;;;4.15;;
58669;SDS011;44439;47.924;10.198;2022-09-21T03:12:55;8.25;;;4.25;;
58669;SDS011;44439;47.924;10.198;2022-09-21T03:15:43;6.63;;;4.75;;
58669;SDS011;44439;47.924;10.198;2022-09-21T03:18:30;5.43;;;4.38;;
58669;SDS011;44439;47.924;10.198;2022-09-21T03:21:15;6.10;;;3.78;;
58669;SDS011;44439;47.924;10.198;2022-09-21T03:24:01;4.20;;;2.97;;
58669;SDS011;44439;47.924;10.198;2022-09-21T03:26:47;8.57;;;3.25;;
58669;SDS011;44439;47.924;10.198;2022-09-21T03:29:32;6.88;;;3.42;;
58669;SDS011;44439;47.924;10.198;2022-09-21T03:32:18;4.28;;;2.97;;
58669;SDS011;44439;47.924;10.198;2022-09-21T03:35:04;5.63;;;2.65;;
58669;SDS011;44439;47.924;10.198;2022-09-21T03:37:50;3.40;;;2.38;;
58669;SDS011;44439;47.924;10.198;2022-09-21T03:40:36;4.15;;;2.70;;
58669;SDS011;44439;47.924;10.198;2022-09-21T03:43:22;4.32;;;2.55;;
58669;SDS011;44439;47.924;10.198;2022-09-21T03:46:07;3.83;;;3.22;;
58669;SDS011;44439;47.924;10.198;2022-09-21T03:48:53;3.20;;;2.67;;
58669;SDS011;44439;47.924;10.198;2022-09-21T03:51:39;3.70;;;2.67;;
58669;SDS011;44439;47.924;10.198;2022-09-21T03:54:24;3.38;;;2.75;;
58669;SDS011;44439;47.924;10.198;2022-09-21T03:57:10;4.85;;;2.58;;
58669;SDS011;44439;47.924;10.198;2022-09-21T03:59:56;3.40;;;2.67;;
58669;SDS011;44439;47.924;10.198;2022-09-21T04:02:41;3.83;;;2.60;;
58669;SDS011;44439;47.924;10.198;2022-09-21T04:05:27;3.33;;;2.55;;
58669;SDS011;44439;47.924;10.198;2022-09-21T04:08:13;4.15;;;2.60;;
58669;SDS011;44439;47.924;10.198;2022-09-21T04:10:58;4.80;;;2.85;;
58669;SDS011;44439;47.924;10.198;2022-09-21T04:13:47;4.68;;;2.65;;
58669;SDS011;44439;47.924;10.198;2022-09-21T04:16:33;4.50;;;2.95;;
58669;SDS011;44439;47.924;10.198;2022-09-21T04:19:19;3.03;;;2.53;;
58669;SDS011;44439;47.924;10.198;2022-09-21T04:22:06;3.50;;;2.20;;
58669;SDS011;44439;47.924;10.198;2022-09-21T04:24:52;4.40;;;2.30;;
58669;SDS011;44439;47.924;10.198;2022-09-21T04:27:38;4.35;;;2.75;;
58669;SDS011;44439;47.924;10.198;2022-09-21T04:30:24;3.78;;;2.47;;
58669;SDS011;44439;47.924;10.198;2022-09-21T04:33:09;4.43;;;2.80;;
58669;SDS011;44439;47.924;10.198;2022-09-21T04:35:55;7.38;;;3.00;;
58669;SDS011;44439;47.924;10.198;2022-09-21T04:38:41;4.90;;;2.58;;
58669;SDS011;44439;47.924;10.198;2022-09-21T04:41:26;3.97;;;2.83;;
58669;SDS011;44439;47.924;10.198;2022-09-21T04:44:12;5.90;;;3.28;;
58669;SDS011;44439;47.924;10.198;2022-09-21T04:46:58;4.20;;;2.85;;
58669;SDS011;44439;47.924;10.198;2022-09-21T04:49:44;4.88;;;3.03;;
58669;SDS011;44439;47.924;10.198;2022-09-21T04:52:30;3.28;;;2.80;;
58669;SDS011;44439;47.924;10.198;2022-09-21T04:55:16;6.55;;;2.72;;
58669;SDS011;44439;47.924;10.198;2022-09-21T04:58:02;3.63;;;2.58;;
58669;SDS011;44439;47.924;10.198;2022-09-21T05:00:48;4.78;;;2.70;;
58669;SDS011;44439;47.924;10.198;2022-09-21T05:03:35;6.55;;;2.90;;
58669;SDS011;44439;47.924;10.198;2022-09-21T05:06:21;8.88;;;5.20;;
58669;SDS011;44439;47.924;10.198;2022-09-21T05:09:07;6.38;;;4.03;;
58669;SDS011;44439;47.924;10.198;2022-09-21T05:12:11;7.78;;;5.00;;
58669;SDS011;44439;47.924;10.198;2022-09-21T05:14:57;4.45;;;3.15;;
58669;SDS011;44439;47.924;10.198;2022-09-21T05:17:43;4.07;;;3.08;;
58669;SDS011;44439;47.924;10.198;2022-09-21T05:20:28;3.90;;;2.72;;
58669;SDS011;44439;47.924;10.198;2022-09-21T05:23:14;5.88;;;3.00;;
58669;SDS011;44439;47.924;10.198;2022-09-21T05:26:00;5.97;;;3.42;;
58669;SDS011;44439;47.924;10.198;2022-09-21T05:28:45;4.00;;;2.78;;
58669;SDS011;44439;47.924;10.198;2022-09-21T05:31:37;6.10;;;3.55;;
58669;SDS011;44439;47.924;10.198;2022-09-21T05:40:24;11.10;;;4.03;;
58669;SDS011;44439;47.924;10.198;2022-09-21T05:43:10;10.50;;;6.10;;
58669;SDS011;44439;47.924;10.198;2022-09-21T05:45:57;10.88;;;5.80;;
58669;SDS011;44439;47.924;10.198;2022-09-21T05:48:52;10.40;;;6.47;;
58669;SDS011;44439;47.924;10.198;2022-09-21T05:55:02;10.10;;;7.90;;
58669;SDS011;44439;47.924;10.198;2022-09-21T05:58:00;11.60;;;8.13;;
58669;SDS011;44439;47.924;10.198;2022-09-21T06:04:10;8.75;;;5.70;;
58669;SDS011;44439;47.924;10.198;2022-09-21T06:06:59;11.02;;;6.88;;
58669;SDS011;44439;47.924;10.198;2022-09-21T06:09:45;8.57;;;6.40;;
58669;SDS011;44439;47.924;10.198;2022-09-21T06:12:30;8.60;;;6.32;;
58669;SDS011;44439;47.924;10.198;2022-09-21T06:15:16;10.23;;;6.32;;
58669;SDS011;44439;47.924;10.198;2022-09-21T06:18:02;12.13;;;5.15;;
58669;SDS011;44439;47.924;10.198;2022-09-21T06:20:48;7.38;;;3.92;;
58669;SDS011;44439;47.924;10.198;2022-09-21T06:23:34;6.53;;;3.60;;
58669;SDS011;44439;47.924;10.198;2022-09-21T06:26:20;3.58;;;2.72;;
58669;SDS011;44439;47.924;10.198;2022-09-21T06:29:05;5.13;;;3.00;;
58669;SDS011;44439;47.924;10.198;2022-09-21T06:31:51;5.65;;;3.10;;
58669;SDS011;44439;47.924;10.198;2022-09-21T06:34:37;9.73;;;3.20;;
58669;SDS011;44439;47.924;10.198;2022-09-21T06:37:22;9.73;;;3.13;;
58669;SDS011;44439;47.924;10.198;2022-09-21T06:40:08;8.77;;;3.15;;
58669;SDS011;44439;47.924;10.198;2022-09-21T06:42:54;12.45;;;3.38;;
58669;SDS011;44439;47.924;10.198;2022-09-21T06:45:43;12.63;;;3.80;;
58669;SDS011;44439;47.924;10.198;2022-09-21T06:48:37;11.65;;;4.38;;
58669;SDS011;44439;47.924;10.198;2022-09-21T06:51:22;14.32;;;4.28;;
58669;SDS011;44439;47.924;10.198;2022-09-21T06:54:08;10.02;;;4.50;;
58669;SDS011;44439;47.924;10.198;2022-09-21T06:56:54;11.70;;;4.68;;
58669;SDS011;44439;47.924;10.198;2022-09-21T06:59:39;6.80;;;3.33;;
58669;SDS011;44439;47.924;10.198;2022-09-21T07:02:25;10.73;;;3.10;;
58669;SDS011;44439;47.924;10.198;2022-09-21T07:05:11;8.43;;;2.92;;
58669;SDS011;44439;47.924;10.198;2022-09-21T07:07:57;12.45;;;3.53;;
58669;SDS011;44439;47.924;10.198;2022-09-21T07:10:43;9.50;;;3.08;;
58669;SDS011;44439;47.924;10.198;2022-09-21T07:13:28;10.63;;;2.92;;
58669;SDS011;44439;47.924;10.198;2022-09-21T07:16:14;6.45;;;2.60;;
58669;SDS011;44439;47.924;10.198;2022-09-21T07:19:00;7.10;;;2.60;;
58669;SDS011;44439;47.924;10.198;2022-09-21T07:21:46;8.32;;;2.90;;
58669;SDS011;44439;47.924;10.198;2022-09-21T07:24:32;8.60;;;2.72;;
58669;SDS011;44439;47.924;10.198;2022-09-21T07:27:17;12.55;;;3.35;;
58669;SDS011;44439;47.924;10.198;2022-09-21T07:30:03;10.35;;;3.38;;
58669;SDS011;44439;47.924;10.198;2022-09-21T07:32:50;14.02;;;3.50;;
58669;SDS011;44439;47.924;10.198;2022-09-21T07:35:35;13.20;;;3.17;;
58669;SDS011;44439;47.924;10.198;2022-09-21T07:38:21;9.32;;;3.40;;
58669;SDS011;44439;47.924;10.198;2022-09-21T07:41:09;15.07;;;3.22;;
58669;SDS011;44439;47.924;10.198;2022-09-21T07:43:56;3.80;;;2.72;;
58669;SDS011;44439;47.924;10.198;2022-09-21T07:46:42;3.53;;;2.28;;
58669;SDS011;44439;47.924;10.198;2022-09-21T07:49:27;5.22;;;3.17;;
58669;SDS011;44439;47.924;10.198;2022-09-21T07:52:13;6.03;;;2.90;;
58669;SDS011;44439;47.924;10.198;2022-09-21T07:55:03;4.47;;;2.50;;
58669;SDS011;44439;47.924;10.198;2022-09-21T07:57:49;6.47;;;2.58;;
58669;SDS011;44439;47.924;10.198;2022-09-21T08:00:53;5.40;;;2.20;;
58669;SDS011;44439;47.924;10.198;2022-09-21T08:03:39;5.57;;;2.40;;
58669;SDS011;44439;47.924;10.198;2022-09-21T08:06:26;3.17;;;2.35;;
58669;SDS011;44439;47.924;10.198;2022-09-21T08:09:14;5.43;;;2.58;;
58669;SDS011;44439;47.924;10.198;2022-09-21T08:12:01;4.00;;;1.98;;
58669;SDS011;44439;47.924;10.198;2022-09-21T08:14:46;5.93;;;2.22;;
58669;SDS011;44439;47.924;10.198;2022-09-21T08:17:32;5.82;;;2.40;;
58669;SDS011;44439;47.924;10.198;2022-09-21T08:20:18;4.85;;;1.75;;
58669;SDS011;44439;47.924;10.198;2022-09-21T08:23:04;3.95;;;1.90;;
58669;SDS011;44439;47.924;10.198;2022-09-21T08:25:50;3.28;;;1.20;;
58669;SDS011;44439;47.924;10.198;2022-09-21T08:28:36;4.28;;;1.65;;
58669;SDS011;44439;47.924;10.198;2022-09-21T08:31:23;2.92;;;1.60;;
58669;SDS011;44439;47.924;10.198;2022-09-21T08:34:09;3.67;;;1.88;;
58669;SDS011;44439;47.924;10.198;2022-09-21T08:36:54;2.83;;;1.63;;
58669;SDS011;44439;47.924;10.198;2022-09-21T08:39:40;4.10;;;1.58;;
58669;SDS011;44439;47.924;10.198;2022-09-21T08:42:32;3.22;;;1.10;;
58669;SDS011;44439;47.924;10.198;2022-09-21T08:45:24;3.65;;;1.63;;
58669;SDS011;44439;47.924;10.198;2022-09-21T08:48:16;3.67;;;1.60;;
58669;SDS011;44439;47.924;10.198;2022-09-21T08:51:08;5.32;;;1.35;;
58669;SDS011;44439;47.924;10.198;2022-09-21T08:54:10;3.13;;;1.00;;
58669;SDS011;44439;47.924;10.198;2022-09-21T08:56:59;3.13;;;1.23;;
58669;SDS011;44439;47.924;10.198;2022-09-21T08:59:46;3.05;;;1.23;;
58669;SDS011;44439;47.924;10.198;2022-09-21T09:05:43;2.78;;;1.30;;
58669;SDS011;44439;47.924;10.198;2022-09-21T09:18:52;2.28;;;0.80;;
58669;SDS011;44439;47.924;10.198;2022-09-21T09:21:39;3.45;;;1.05;;
58669;SDS011;44439;47.924;10.198;2022-09-21T09:24:37;2.30;;;0.90;;
58669;SDS011;44439;47.924;10.198;2022-09-21T09:27:27;2.30;;;1.05;;
58669;SDS011;44439;47.924;10.198;2022-09-21T09:30:18;3.30;;;0.85;;
58669;SDS011;44439;47.924;10.198;2022-09-21T09:33:11;2.08;;;0.80;;
58669;SDS011;44439;47.924;10.198;2022-09-21T09:36:03;2.33;;;0.80;;
58669;SDS011;44439;47.924;10.198;2022-09-21T09:39:00;3.47;;;1.20;;
58669;SDS011;44439;47.924;10.198;2022-09-21T09:51:01;3.85;;;1.30;;
58669;SDS011;44439;47.924;10.198;2022-09-21T09:53:46;2.95;;;1.10;;
58669;SDS011;44439;47.924;10.198;2022-09-21T09:56:32;5.35;;;1.50;;
58669;SDS011;44439;47.924;10.198;2022-09-21T09:59:22;1.90;;;1.20;;
58669;SDS011;44439;47.924;10.198;2022-09-21T10:05:03;1.80;;;1.38;;
58669;SDS011;44439;47.924;10.198;2022-09-21T10:07:53;4.03;;;1.20;;
58669;SDS011;44439;47.924;10.198;2022-09-21T10:10:39;2.13;;;1.25;;
58669;SDS011;44439;47.924;10.198;2022-09-21T10:13:27;1.60;;;0.90;;
58669;SDS011;44439;47.924;10.198;2022-09-21T10:16:14;2.47;;;1.13;;
58669;SDS011;44439;47.924;10.198;2022-09-21T10:19:12;3.03;;;1.08;;
58669;SDS011;44439;47.924;10.198;2022-09-21T10:22:00;2.33;;;1.08;;
58669;SDS011;44439;47.924;10.198;2022-09-21T10:24:55;1.77;;;0.80;;
58669;SDS011;44439;47.924;10.198;2022-09-21T10:27:44;3.38;;;1.10;;
58669;SDS011;44439;47.924;10.198;2022-09-21T10:30:34;1.75;;;0.90;;
58669;SDS011;44439;47.924;10.198;2022-09-21T10:33:23;1.45;;;1.13;;
58669;SDS011;44439;47.924;10.198;2022-09-21T10:36:20;1.30;;;0.90;;
58669;SDS011;44439;47.924;10.198;2022-09-21T10:42:11;4.65;;;1.23;;
58669;SDS011;44439;47.924;10.198;2022-09-21T10:45:17;1.25;;;0.90;;
58669;SDS011;44439;47.924;10.198;2022-09-21T10:50:50;2.28;;;0.70;;
58669;SDS011;44439;47.924;10.198;2022-09-21T10:53:36;3.63;;;0.77;;
58669;SDS011;44439;47.924;10.198;2022-09-21T10:56:22;2.75;;;0.70;;
58669;SDS011;44439;47.924;10.198;2022-09-21T10:59:10;1.98;;;1.05;;
58669;SDS011;44439;47.924;10.198;2022-09-21T11:02:25;1.40;;;0.77;;
58669;SDS011;44439;47.924;10.198;2022-09-21T11:08:21;2.60;;;0.80;;
58669;SDS011;44439;47.924;10.198;2022-09-21T11:11:36;2.20;;;0.82;;
58669;SDS011;44439;47.924;10.198;2022-09-21T11:14:34;2.58;;;1.00;;
58669;SDS011;44439;47.924;10.198;2022-09-21T11:18:19;1.30;;;0.60;;
58669;SDS011;44439;47.924;10.198;2022-09-21T11:21:02;2.22;;;0.77;;
58669;SDS011;44439;47.924;10.198;2022-09-21T11:27:32;6.70;;;0.93;;
58669;SDS011;44439;47.924;10.198;2022-09-21T11:30:20;1.35;;;0.60;;
58669;SDS011;44439;47.924;10.198;2022-09-21T11:33:13;2.55;;;0.68;;
58669;SDS011;44439;47.924;10.198;2022-09-21T11:36:52;1.20;;;0.45;;
58669;SDS011;44439;47.924;10.198;2022-09-21T11:45:47;1.38;;;0.80;;
58669;SDS011;44439;47.924;10.198;2022-09-21T11:48:54;2.90;;;0.80;;
58669;SDS011;44439;47.924;10.198;2022-09-21T11:58:23;1.58;;;0.60;;
58669;SDS011;44439;47.924;10.198;2022-09-21T12:23:20;1.60;;;0.60;;
58669;SDS011;44439;47.924;10.198;2022-09-21T12:26:13;3.20;;;0.50;;
58669;SDS011;44439;47.924;10.198;2022-09-21T12:29:04;1.33;;;0.93;;
58669;SDS011;44439;47.924;10.198;2022-09-21T12:32:07;1.27;;;0.52;;
58669;SDS011;44439;47.924;10.198;2022-09-21T12:38:28;1.63;;;0.68;;
58669;SDS011;44439;47.924;10.198;2022-09-21T12:42:08;0.93;;;0.50;;
58669;SDS011;44439;47.924;10.198;2022-09-21T12:48:49;2.58;;;0.47;;
58669;SDS011;44439;47.924;10.198;2022-09-21T12:51:36;2.03;;;0.57;;
58669;SDS011;44439;47.924;10.198;2022-09-21T13:08:04;1.83;;;0.50;;
58669;SDS011;44439;47.924;10.198;2022-09-21T13:10:57;1.15;;;0.60;;
58669;SDS011;44439;47.924;10.198;2022-09-21T13:16:37;1.00;;;0.50;;
58669;SDS011;44439;47.924;10.198;2022-09-21T13:19:24;2.38;;;0.60;;
58669;SDS011;44439;47.924;10.198;2022-09-21T13:22:18;0.88;;;0.30;;
58669;SDS011;44439;47.924;10.198;2022-09-21T13:28:15;0.88;;;0.30;;
58669;SDS011;44439;47.924;10.198;2022-09-21T13:42:47;1.85;;;0.68;;
58669;SDS011;44439;47.924;10.198;2022-09-21T13:45:46;0.50;;;0.45;;
58669;SDS011;44439;47.924;10.198;2022-09-21T13:48:34;0.50;;;0.32;;
58669;SDS011;44439;47.924;10.198;2022-09-21T13:51:20;1.42;;;0.50;;
58669;SDS011;44439;47.924;10.198;2022-09-21T13:54:10;4.35;;;0.60;;
58669;SDS011;44439;47.924;10.198;2022-09-21T13:56:59;1.80;;;0.52;;
58669;SDS011;44439;47.924;10.198;2022-09-21T14:02:43;1.20;;;0.57;;
58669;SDS011;44439;47.924;10.198;2022-09-21T14:06:23;2.20;;;0.70;;
58669;SDS011;44439;47.924;10.198;2022-09-21T14:09:19;2.67;;;0.50;;
58669;SDS011;44439;47.924;10.198;2022-09-21T14:12:09;2.17;;;0.55;;
58669;SDS011;44439;47.924;10.198;2022-09-21T14:18:07;1.98;;;0.57;;
58669;SDS011;44439;47.924;10.198;2022-09-21T14:26:52;1.65;;;0.80;;
58669;SDS011;44439;47.924;10.198;2022-09-21T14:35:36;4.15;;;1.90;;
58669;SDS011;44439;47.924;10.198;2022-09-21T14:38:46;3.03;;;1.48;;
58669;SDS011;44439;47.924;10.198;2022-09-21T14:41:39;1.67;;;0.73;;
58669;SDS011;44439;47.924;10.198;2022-09-21T14:44:27;0.77;;;0.70;;
58669;SDS011;44439;47.924;10.198;2022-09-21T14:47:24;1.83;;;0.88;;
58669;SDS011;44439;47.924;10.198;2022-09-21T15:15:34;5.45;;;0.82;;
58669;SDS011;44439;47.924;10.198;2022-09-21T15:18:24;2.58;;;0.70;;
58669;SDS011;44439;47.924;10.198;2022-09-21T15:21:26;2.65;;;0.77;;
58669;SDS011;44439;47.924;10.198;2022-09-21T15:27:16;2.00;;;0.77;;
58669;SDS011;44439;47.924;10.198;2022-09-21T15:30:04;3.92;;;0.77;;
58669;SDS011;44439;47.924;10.198;2022-09-21T15:32:58;1.25;;;0.60;;
58669;SDS011;44439;47.924;10.198;2022-09-21T15:35:45;1.08;;;0.57;;
58669;SDS011;44439;47.924;10.198;2022-09-21T15:38:32;2.22;;;0.63;;
58669;SDS011;44439;47.924;10.198;2022-09-21T15:41:54;2.20;;;0.90;;
58669;SDS011;44439;47.924;10.198;2022-09-21T15:44:35;1.23;;;0.50;;
58669;SDS011;44439;47.924;10.198;2022-09-21T15:47:22;2.05;;;0.80;;
58669;SDS011;44439;47.924;10.198;2022-09-21T15:50:11;2.95;;;0.90;;
58669;SDS011;44439;47.924;10.198;2022-09-21T15:52:59;1.27;;;0.70;;
58669;SDS011;44439;47.924;10.198;2022-09-21T15:55:49;0.93;;;0.80;;
58669;SDS011;44439;47.924;10.198;2022-09-21T15:58:35;2.97;;;1.80;;
58669;SDS011;44439;47.924;10.198;2022-09-21T16:01:22;2.05;;;0.80;;
58669;SDS011;44439;47.924;10.198;2022-09-21T16:04:12;2.22;;;1.27;;
58669;SDS011;44439;47.924;10.198;2022-09-21T16:07:04;1.98;;;0.90;;
58669;SDS011;44439;47.924;10.198;2022-09-21T16:09:51;3.45;;;1.25;;
58669;SDS011;44439;47.924;10.198;2022-09-21T16:12:41;2.13;;;0.85;;
58669;SDS011;44439;47.924;10.198;2022-09-21T16:15:28;3.92;;;0.70;;
58669;SDS011;44439;47.924;10.198;2022-09-21T16:18:29;0.88;;;0.82;;
58669;SDS011;44439;47.924;10.198;2022-09-21T16:21:32;1.00;;;0.75;;
58669;SDS011;44439;47.924;10.198;2022-09-21T16:24:20;3.67;;;1.10;;
58669;SDS011;44439;47.924;10.198;2022-09-21T16:27:12;3.35;;;1.65;;
58669;SDS011;44439;47.924;10.198;2022-09-21T16:30:00;2.00;;;1.00;;
58669;SDS011;44439;47.924;10.198;2022-09-21T16:32:46;3.20;;;0.82;;
58669;SDS011;44439;47.924;10.198;2022-09-21T16:35:37;4.63;;;2.03;;
58669;SDS011;44439;47.924;10.198;2022-09-21T16:38:24;4.10;;;2.63;;
58669;SDS011;44439;47.924;10.198;2022-09-21T16:41:10;4.40;;;0.98;;
58669;SDS011;44439;47.924;10.198;2022-09-21T16:43:56;2.55;;;1.50;;
58669;SDS011;44439;47.924;10.198;2022-09-21T16:46:42;2.45;;;1.00;;
58669;SDS011;44439;47.924;10.198;2022-09-21T16:49:30;2.80;;;1.00;;
58669;SDS011;44439;47.924;10.198;2022-09-21T16:52:20;4.10;;;1.50;;
58669;SDS011;44439;47.924;10.198;2022-09-21T16:55:07;1.60;;;1.20;;
58669;SDS011;44439;47.924;10.198;2022-09-21T16:57:54;1.92;;;1.48;;
58669;SDS011;44439;47.924;10.198;2022-09-21T17:00:40;1.48;;;1.17;;
58669;SDS011;44439;47.924;10.198;2022-09-21T17:03:27;1.45;;;1.20;;
58669;SDS011;44439;47.924;10.198;2022-09-21T17:06:16;1.70;;;1.38;;
58669;SDS011;44439;47.924;10.198;2022-09-21T17:09:07;6.68;;;1.20;;
58669;SDS011;44439;47.924;10.198;2022-09-21T17:12:04;1.45;;;1.20;;
58669;SDS011;44439;47.924;10.198;2022-09-21T17:14:52;2.13;;;1.15;;
58669;SDS011;44439;47.924;10.198;2022-09-21T17:17:38;2.70;;;1.25;;
58669;SDS011;44439;47.924;10.198;2022-09-21T17:20:37;2.65;;;1.30;;
58669;SDS011;44439;47.924;10.198;2022-09-21T17:23:25;3.22;;;1.73;;
58669;SDS011;44439;47.924;10.198;2022-09-21T17:26:14;2.67;;;1.63;;
58669;SDS011;44439;47.924;10.198;2022-09-21T17:29:02;3.05;;;2.40;;
58669;SDS011;44439;47.924;10.198;2022-09-21T17:31:50;3.22;;;2.03;;
58669;SDS011;44439;47.924;10.198;2022-09-21T17:34:38;3.72;;;3.42;;
58669;SDS011;44439;47.924;10.198;2022-09-21T17:37:23;5.28;;;3.58;;
58669;SDS011;44439;47.924;10.198;2022-09-21T17:40:09;2.45;;;1.00;;
58669;SDS011;44439;47.924;10.198;2022-09-21T17:43:01;3.08;;;1.60;;
58669;SDS011;44439;47.924;10.198;2022-09-21T17:48:52;2.47;;;1.88;;
58669;SDS011;44439;47.924;10.198;2022-09-21T17:51:38;4.93;;;1.40;;
58669;SDS011;44439;47.924;10.198;2022-09-21T17:54:43;4.60;;;1.33;;
58669;SDS011;44439;47.924;10.198;2022-09-21T18:03:36;4.82;;;2.90;;
58669;SDS011;44439;47.924;10.198;2022-09-21T18:06:25;4.47;;;3.15;;
58669;SDS011;44439;47.924;10.198;2022-09-21T18:09:11;5.10;;;3.67;;
58669;SDS011;44439;47.924;10.198;2022-09-21T18:18:16;3.13;;;2.67;;
58669;SDS011;44439;47.924;10.198;2022-09-21T18:21:04;4.07;;;3.28;;
58669;SDS011;44439;47.924;10.198;2022-09-21T18:24:13;5.22;;;2.85;;
58669;SDS011;44439;47.924;10.198;2022-09-21T18:27:03;6.22;;;3.25;;
58669;SDS011;44439;47.924;10.198;2022-09-21T18:29:49;3.42;;;2.50;;
58669;SDS011;44439;47.924;10.198;2022-09-21T18:32:42;5.00;;;3.20;;
58669;SDS011;44439;47.924;10.198;2022-09-21T18:38:30;4.80;;;2.83;;
58669;SDS011;44439;47.924;10.198;2022-09-21T18:41:25;6.35;;;4.43;;
58669;SDS011;44439;47.924;10.198;2022-09-21T18:47:27;8.68;;;6.88;;
58669;SDS011;44439;47.924;10.198;2022-09-21T18:56:11;5.63;;;4.57;;
58669;SDS011;44439;47.924;10.198;2022-09-21T18:58:58;6.20;;;4.33;;
58669;SDS011;44439;47.924;10.198;2022-09-21T19:01:44;5.00;;;3.28;;
58669;SDS011;44439;47.924;10.198;2022-09-21T19:04:31;6.40;;;5.13;;
58669;SDS011;44439;47.924;10.198;2022-09-21T19:07:22;6.50;;;4.20;;
58669;SDS011;44439;47.924;10.198;2022-09-21T19:10:32;4.38;;;3.97;;
58669;SDS011;44439;47.924;10.198;2022-09-21T19:25:39;4.95;;;2.95;;
58669;SDS011;44439;47.924;10.198;2022-09-21T19:31:54;3.70;;;3.05;;
58669;SDS011;44439;47.924;10.198;2022-09-21T19:34:39;5.07;;;2.50;;
58669;SDS011;44439;47.924;10.198;2022-09-21T19:37:25;3.97;;;3.13;;
58669;SDS011;44439;47.924;10.198;2022-09-21T19:40:12;4.22;;;2.72;;
58669;SDS011;44439;47.924;10.198;2022-09-21T19:48:51;2.50;;;1.80;;
58669;SDS011;44439;47.924;10.198;2022-09-21T19:51:43;6.10;;;2.38;;
58669;SDS011;44439;47.924;10.198;2022-09-21T19:54:31;3.03;;;1.77;;
58669;SDS011;44439;47.924;10.198;2022-09-21T19:57:36;4.32;;;2.65;;
58669;SDS011;44439;47.924;10.198;2022-09-21T20:00:40;4.72;;;1.85;;
58669;SDS011;44439;47.924;10.198;2022-09-21T20:03:30;2.05;;;1.42;;
58669;SDS011;44439;47.924;10.198;2022-09-21T20:06:21;2.95;;;1.58;;
58669;SDS011;44439;47.924;10.198;2022-09-21T20:09:15;2.17;;;1.50;;
58669;SDS011;44439;47.924;10.198;2022-09-21T20:12:18;6.68;;;3.30;;
58669;SDS011;44439;47.924;10.198;2022-09-21T20:15:11;3.75;;;3.35;;
58669;SDS011;44439;47.924;10.198;2022-09-21T20:18:01;4.45;;;2.80;;
58669;SDS011;44439;47.924;10.198;2022-09-21T20:20:52;5.57;;;3.80;;
58669;SDS011;44439;47.924;10.198;2022-09-21T20:23:39;5.68;;;3.95;;
58669;SDS011;44439;47.924;10.198;2022-09-21T20:26:25;6.15;;;4.43;;
58669;SDS011;44439;47.924;10.198;2022-09-21T20:29:11;5.60;;;4.00;;
58669;SDS011;44439;47.924;10.198;2022-09-21T20:31:57;6.13;;;3.90;;
58669;SDS011;44439;47.924;10.198;2022-09-21T20:34:45;7.72;;;4.55;;
58669;SDS011;44439;47.924;10.198;2022-09-21T20:37:31;6.90;;;4.75;;
58669;SDS011;44439;47.924;10.198;2022-09-21T20:40:17;6.88;;;3.50;;
58669;SDS011;44439;47.924;10.198;2022-09-21T20:43:04;5.05;;;3.75;;
58669;SDS011;44439;47.924;10.198;2022-09-21T20:45:50;7.60;;;3.65;;
58669;SDS011;44439;47.924;10.198;2022-09-21T20:48:36;4.95;;;3.20;;
58669;SDS011;44439;47.924;10.198;2022-09-21T20:51:22;5.70;;;3.72;;
58669;SDS011;44439;47.924;10.198;2022-09-21T20:54:08;5.53;;;4.13;;
58669;SDS011;44439;47.924;10.198;2022-09-21T20:56:54;6.97;;;4.03;;